Time;durP1;ratioP1;P1;durP2;ratioP2;P2;SDS_P1;SDS_P2;PMS_P1;PMS_P2;Temp;Humidity;BMP_temperature;BMP_pressure;BME280_temperature;BME280_humidity;BME280_pressure;Samples;Min_cycle;Max_cycle;Signal;HPM_P1;HPM_P2
2022/03/19 00:00:54;;;;;;;;;4.00;4.00;;;;;13.37;30.84;103189.66;4996725;28;47048;-93
2022/03/19 00:03:20;;;;;;;;;6.33;4.00;;;;;13.20;30.98;103170.22;4996978;27;45375;-92
2022/03/19 00:05:46;;;;;;;;;2.67;2.33;;;;;13.85;31.01;103267.44;4997007;28;45408;-93
2022/03/19 00:08:13;;;;;;;;;6.00;4.67;;;;;13.10;31.08;103145.38;4997120;27;45343;-93
2022/03/19 00:10:38;;;;;;;;;5.00;3.00;;;;;13.03;30.84;103139.25;4996503;27;47065;-93
2022/03/19 00:13:04;;;;;;;;;7.00;5.33;;;;;13.29;30.51;103195.09;4996683;28;45389;-93
2022/03/19 00:15:29;;;;;;;;;4.00;4.00;;;;;13.31;30.63;103203.13;4989112;27;45331;-93
2022/03/19 00:17:57;;;;;;;;;8.00;4.00;;;;;13.07;30.47;103158.84;4977308;28;45505;-93
2022/03/19 00:20:23;;;;;;;;;4.00;4.00;;;;;13.58;30.79;103262.53;4977146;28;47369;-93
2022/03/19 00:22:49;;;;;;;;;3.33;3.33;;;;;13.19;30.84;103196.13;4976734;28;45573;-93
2022/03/19 00:25:15;;;;;;;;;3.67;3.67;;;;;13.23;30.44;103213.06;4977253;28;45383;-92
2022/03/19 00:27:41;;;;;;;;;4.33;3.00;;;;;13.09;30.53;103191.84;4977419;28;45586;-93
2022/03/19 00:30:07;;;;;;;;;8.67;5.33;;;;;13.17;30.54;103203.28;4976756;28;47201;-92
2022/03/19 00:32:34;;;;;;;;;6.00;4.67;;;;;13.09;30.55;103205.22;4976925;28;45666;-93
2022/03/19 00:34:59;;;;;;;;;4.67;3.67;;;;;13.38;30.43;103244.97;4976763;28;45382;-92
2022/03/19 00:37:25;;;;;;;;;6.67;5.33;;;;;13.11;30.29;103214.13;4977213;28;45581;-93
2022/03/19 00:39:51;;;;;;;;;3.67;3.67;;;;;13.57;30.62;103277.72;4976631;28;48138;-92
2022/03/19 00:42:16;;;;;;;;;9.00;6.33;;;;;12.99;30.21;103185.69;4994587;27;45456;-92
2022/03/19 00:44:42;;;;;;;;;5.33;5.00;;;;;13.10;30.28;103196.25;4992226;27;45384;-92
2022/03/19 00:47:07;;;;;;;;;7.00;3.67;;;;;12.99;30.51;103193.72;4993918;27;45585;-93
2022/03/19 00:49:33;;;;;;;;;3.67;3.67;;;;;12.78;30.45;103160.16;4997303;27;46278;-92
2022/03/19 00:51:58;;;;;;;;;5.00;5.00;;;;;12.98;30.26;103191.97;4982358;28;45942;-92
2022/03/19 00:54:23;;;;;;;;;3.67;3.67;;;;;13.34;30.42;103248.59;4976792;28;45312;-93
2022/03/19 00:56:49;;;;;;;;;3.67;3.67;;;;;12.86;30.48;103176.97;4976928;28;45570;-93
2022/03/19 00:59:14;;;;;;;;;1.67;1.67;;;;;12.78;30.59;103159.25;4976556;28;47116;-93
2022/03/19 01:01:40;;;;;;;;;6.67;3.00;;;;;12.93;30.45;103187.59;4976323;28;45384;-93
2022/03/19 01:04:05;;;;;;;;;5.00;5.00;;;;;12.76;30.22;103151.25;4976750;28;45324;-93
2022/03/19 01:06:30;;;;;;;;;2.33;2.33;;;;;12.65;30.58;103131.78;4976705;28;45561;-93
2022/03/19 01:08:56;;;;;;;;;2.67;2.00;;;;;12.81;29.99;103164.56;4978136;28;45888;-93
2022/03/19 01:11:23;;;;;;;;;2.33;2.33;;;;;13.05;30.24;103206.16;4986445;28;45299;-93
2022/03/19 01:13:53;;;;;;;;;3.00;3.00;;;;;12.86;30.74;103168.06;4995999;28;45378;-93
2022/03/19 01:16:19;;;;;;;;;3.00;3.00;;;;;13.35;30.19;103245.03;4996214;27;45327;-92
2022/03/19 01:18:46;;;;;;;;;3.67;2.00;;;;;13.06;30.14;103197.22;4990532;28;47128;-93
2022/03/19 01:21:11;;;;;;;;;2.00;2.00;;;;;12.74;30.07;103146.84;4975989;28;45951;-93
2022/03/19 01:23:37;;;;;;;;;3.67;2.67;;;;;13.32;30.20;103236.13;4976324;28;45373;-93
2022/03/19 01:26:02;;;;;;;;;2.67;1.67;;;;;12.83;30.53;103160.97;4976750;28;45276;-93
2022/03/19 01:28:27;;;;;;;;;1.67;1.67;;;;;12.60;29.92;103139.88;4976358;28;48030;-93
2022/03/19 01:30:53;;;;;;;;;4.00;1.67;;;;;12.25;30.25;103084.19;4976057;28;45502;-92
2022/03/19 01:33:18;;;;;;;;;1.67;1.67;;;;;12.19;30.38;103086.94;4976458;28;45267;-93
2022/03/19 01:35:43;;;;;;;;;2.67;1.67;;;;;12.77;30.25;103200.31;4976700;28;45308;-93
2022/03/19 01:38:09;;;;;;;;;4.00;4.00;;;;;12.42;30.39;103121.41;4976215;28;47373;-93
2022/03/19 01:40:34;;;;;;;;;1.67;1.67;;;;;12.28;30.14;103105.53;4976311;28;45241;-93
2022/03/19 01:43:00;;;;;;;;;2.67;2.67;;;;;12.42;30.38;103127.63;4994836;28;45211;-93
2022/03/19 01:45:25;;;;;;;;;6.33;2.00;;;;;12.72;30.44;103180.75;4996021;27;45600;-93
2022/03/19 01:47:51;;;;;;;;;1.67;1.67;;;;;12.74;30.51;103179.84;4995515;27;47991;-93
2022/03/19 01:50:19;;;;;;;;;2.33;2.33;;;;;12.34;30.70;103124.19;4995686;28;45476;-93
2022/03/19 01:52:56;;;;;;;;;3.00;1.67;;;;;12.85;30.35;103204.66;4997039;27;45370;-93
2022/03/19 01:55:23;;;;;;;;;1.67;1.67;;;;;12.24;30.48;103110.06;4996156;27;45257;-93
2022/03/19 01:57:50;;;;;;;;;3.67;2.00;;;;;12.10;30.37;103085.25;4995553;28;47235;-93
2022/03/19 02:00:24;;;;;;;;;2.00;2.00;;;;;12.56;30.83;103164.03;4995376;27;46028;-93
2022/03/19 02:02:51;;;;;;;;;3.33;1.67;;;;;12.29;30.69;103125.13;4995436;27;45279;-93
2022/03/19 02:05:19;;;;;;;;;3.33;2.33;;;;;12.86;30.56;103217.13;4995582;28;45563;-94
2022/03/19 02:07:46;;;;;;;;;1.67;1.67;;;;;12.17;30.64;103096.75;4995707;27;47900;-93
2022/03/19 02:10:16;;;;;;;;;2.67;2.67;;;;;12.30;30.16;103122.44;4995377;28;45344;-93
2022/03/19 02:12:44;;;;;;;;;4.00;2.50;;;;;12.32;30.23;103136.69;4995922;28;45336;-93
2022/03/19 02:15:11;;;;;;;;;3.00;3.00;;;;;12.14;30.43;103108.38;4995414;27;45352;-93
2022/03/19 02:17:36;;;;;;;;;2.00;2.00;;;;;12.71;30.82;103208.41;4995142;28;47607;-93
2022/03/19 02:20:04;;;;;;;;;2.00;2.00;;;;;12.20;30.72;103119.00;4995218;27;45539;-93
2022/03/19 02:22:30;;;;;;;;;2.00;2.00;;;;;12.08;31.14;103100.44;4995140;28;45290;-93
2022/03/19 02:27:42;;;;;;;;;4.00;2.33;;;;;12.11;30.79;103119.13;4976320;28;45893;-92
2022/03/19 02:30:10;;;;;;;;;2.00;2.00;;;;;12.61;30.91;103196.94;4997882;27;45715;-93
2022/03/19 02:32:39;;;;;;;;;2.00;2.00;;;;;12.07;31.02;103098.66;4994990;28;45450;-93
2022/03/19 02:35:05;;;;;;;;;2.67;2.33;;;;;12.48;31.04;103163.22;4995160;28;45429;-94
2022/03/19 02:37:45;;;;;;;;;3.33;3.33;;;;;12.45;31.41;103164.16;4994501;28;48525;-93
2022/03/19 02:40:14;;;;;;;;;5.00;4.00;;;;;12.43;31.02;103168.63;4983473;27;45773;-93
2022/03/19 02:42:40;;;;;;;;;3.67;3.67;;;;;12.15;31.30;103122.63;4975024;28;45581;-93
2022/03/19 02:45:07;;;;;;;;;4.00;4.00;;;;;12.52;31.15;103189.91;4975130;28;45593;-93
2022/03/19 02:47:33;;;;;;;;;3.33;3.00;;;;;12.06;31.54;103114.72;4975462;28;47829;-94
2022/03/19 02:49:59;;;;;;;;;2.67;2.67;;;;;12.48;31.45;103172.16;4974746;28;45600;-91
2022/03/19 02:52:24;;;;;;;;;5.00;5.00;;;;;12.13;31.41;103130.69;4975329;28;45374;-91
2022/03/19 02:54:49;;;;;;;;;4.67;4.67;;;;;12.11;31.54;103127.13;4976886;28;45436;-93
2022/03/19 02:57:15;;;;;;;;;3.33;3.33;;;;;11.79;31.78;103074.88;4975370;28;48353;-94
2022/03/19 02:59:40;;;;;;;;;3.33;3.33;;;;;12.05;31.71;103124.53;4975520;28;45376;-94
2022/03/19 03:02:07;;;;;;;;;4.67;4.00;;;;;11.88;31.65;103087.31;4984577;27;45321;-94
2022/03/19 03:04:33;;;;;;;;;5.33;4.33;;;;;11.77;31.63;103065.13;5014916;28;45530;-93
2022/03/19 03:07:03;;;;;;;;;4.00;4.00;;;;;11.46;31.88;103009.38;5014330;28;46979;-93
2022/03/19 03:09:31;;;;;;;;;4.00;4.00;;;;;12.31;31.81;103148.28;5014188;28;45887;-93
2022/03/19 03:12:02;;;;;;;;;4.00;4.00;;;;;11.62;31.64;103034.13;5014852;28;45306;-94
2022/03/19 03:14:27;;;;;;;;;4.00;4.00;;;;;11.35;32.25;103003.25;5014736;28;45294;-94
2022/03/19 03:16:53;;;;;;;;;5.00;5.00;;;;;11.18;32.26;102980.31;5016484;28;47930;-93
2022/03/19 03:19:19;;;;;;;;;6.67;5.33;;;;;12.34;32.07;103166.06;5018439;28;46119;-93
2022/03/19 03:21:46;;;;;;;;;5.00;4.67;;;;;12.33;32.13;103166.97;5017232;28;45483;-93
2022/03/19 03:24:13;;;;;;;;;7.00;5.00;;;;;12.33;31.87;103165.19;5017380;27;45376;-94
2022/03/19 03:26:40;;;;;;;;;6.67;6.00;;;;;12.17;32.34;103148.44;5017290;28;47128;-94
2022/03/19 03:29:05;;;;;;;;;6.33;6.33;;;;;12.30;32.48;103164.34;5017702;28;45989;-93
2022/03/19 03:31:32;;;;;;;;;6.33;6.33;;;;;11.54;32.25;103030.66;5017236;28;45458;-94
2022/03/19 03:34:15;;;;;;;;;6.00;6.00;;;;;12.13;32.32;103132.47;5017724;28;45404;-93
2022/03/19 03:36:41;;;;;;;;;6.33;5.67;;;;;11.81;32.26;103073.09;5016944;28;45434;-93
2022/03/19 03:39:06;;;;;;;;;7.33;7.00;;;;;12.10;32.57;103125.34;5017124;28;45380;-94
2022/03/19 03:41:32;;;;;;;;;5.00;5.00;;;;;11.74;32.44;103057.16;5017500;28;45427;-93
2022/03/19 03:43:57;;;;;;;;;5.00;5.00;;;;;11.70;32.75;103047.41;5017376;28;45385;-93
2022/03/19 03:46:22;;;;;;;;;5.67;5.67;;;;;11.74;32.59;103044.69;5016672;28;47225;-93
2022/03/19 03:48:48;;;;;;;;;4.00;4.00;;;;;11.93;32.97;103080.13;5016851;28;45488;-93
2022/03/19 03:51:13;;;;;;;;;7.33;7.33;;;;;11.54;33.02;103020.88;5017299;28;45445;-93
2022/03/19 03:53:40;;;;;;;;;6.00;6.00;;;;;12.19;32.94;103137.72;5017374;28;45329;-93
2022/03/19 03:56:08;;;;;;;;;9.00;9.00;;;;;11.45;32.98;103018.31;5016834;28;47328;-94
2022/03/19 03:58:33;;;;;;;;;11.33;6.33;;;;;11.19;33.28;102971.41;5016804;28;45923;-93
2022/03/19 04:00:59;;;;;;;;;8.00;8.00;;;;;11.26;33.14;102988.25;5016782;28;45321;-92
2022/03/19 04:03:25;;;;;;;;;8.00;8.00;;;;;11.50;33.41;103031.63;5001583;28;45329;-93
2022/03/19 04:05:50;;;;;;;;;8.00;6.67;;;;;11.80;33.23;103092.72;4997172;28;47718;-93
2022/03/19 04:08:16;;;;;;;;;12.67;8.00;;;;;11.09;33.48;102974.19;4997039;27;45979;-93
2022/03/19 04:10:42;;;;;;;;;10.33;10.33;;;;;11.33;33.66;103023.75;4997159;27;45406;-93
2022/03/19 04:13:07;;;;;;;;;11.67;9.00;;;;;11.84;33.81;103118.47;4997251;27;45615;-93
2022/03/19 04:15:32;;;;;;;;;11.00;9.00;;;;;11.32;34.25;103030.00;4996587;27;47154;-93
2022/03/19 04:17:58;;;;;;;;;11.00;9.33;;;;;11.66;34.18;103108.00;4997022;27;45397;-92
2022/03/19 04:20:24;;;;;;;;;12.33;10.00;;;;;11.91;34.42;103137.16;4997571;28;45505;-93
2022/03/19 04:22:50;;;;;;;;;9.33;9.33;;;;;11.89;34.35;103144.31;4997554;27;45506;-93
2022/03/19 04:25:18;;;;;;;;;10.33;8.67;;;;;11.39;34.69;103063.75;4997155;28;48565;-94
2022/03/19 04:27:46;;;;;;;;;11.33;11.33;;;;;11.85;34.42;103143.44;4996726;28;45257;-93
2022/03/19 04:30:13;;;;;;;;;10.00;10.00;;;;;11.29;34.83;103059.41;4996911;27;45322;-93
2022/03/19 04:32:56;;;;;;;;;10.33;10.33;;;;;11.83;34.92;103143.44;4997291;27;45331;-93
2022/03/19 04:38:15;;;;;;;;;11.00;11.00;;;;;11.08;35.13;103044.47;4997802;28;45464;-89
2022/03/19 04:40:42;;;;;;;;;16.00;13.67;;;;;11.21;35.27;103067.47;4996375;28;45313;-93
2022/03/19 04:43:08;;;;;;;;;15.33;12.00;;;;;11.71;35.23;103140.03;4997091;27;45576;-93
2022/03/19 04:45:35;;;;;;;;;16.33;14.33;;;;;11.30;35.38;103066.50;4996227;28;47278;-93
2022/03/19 04:48:00;;;;;;;;;14.67;14.67;;;;;11.04;35.05;103032.06;4997816;28;45444;-93
2022/03/19 04:50:26;;;;;;;;;14.33;13.00;;;;;11.44;35.42;103091.28;4997181;28;45436;-95
2022/03/19 04:52:53;;;;;;;;;17.00;13.67;;;;;11.63;35.50;103129.38;4997573;28;45187;-95
2022/03/19 04:55:18;;;;;;;;;13.67;13.67;;;;;11.30;35.86;103074.53;4997191;28;48569;-95
2022/03/19 04:57:44;;;;;;;;;13.00;12.00;;;;;11.16;35.76;103048.81;4997207;28;45984;-95
2022/03/19 05:00:13;;;;;;;;;12.33;11.67;;;;;11.64;35.94;103133.84;4997304;28;45277;-95
2022/03/19 05:06:27;;;;;;;;;15.67;13.67;;;;;11.57;36.28;103129.47;4977816;28;45330;-94
2022/03/19 05:11:41;;;;;;;;;13.67;13.67;;;;;11.15;36.53;103048.84;4978500;28;45219;-95
2022/03/19 05:14:06;;;;;;;;;11.67;10.33;;;;;11.57;37.17;103124.13;4975765;28;45219;-95
2022/03/19 05:16:32;;;;;;;;;20.00;17.33;;;;;11.05;37.09;103049.81;4975454;28;48509;-95
2022/03/19 05:18:58;;;;;;;;;18.33;16.33;;;;;11.53;36.66;103136.59;4975975;28;45434;-95
2022/03/19 05:21:23;;;;;;;;;15.33;15.33;;;;;11.22;36.89;103076.38;4976159;28;45376;-95
2022/03/19 05:23:48;;;;;;;;;16.67;13.00;;;;;10.50;36.81;102972.00;4992795;28;45463;-95
2022/03/19 05:26:14;;;;;;;;;21.67;18.67;;;;;10.98;37.28;103049.00;4976989;28;47554;-96
2022/03/19 05:28:39;;;;;;;;;19.67;14.00;;;;;10.71;37.02;103004.75;4976746;28;45367;-94
2022/03/19 05:31:07;;;;;;;;;19.33;18.00;;;;;11.09;37.39;103072.94;4976861;28;45322;-95
2022/03/19 05:40:16;;;;;;;;;16.00;15.67;;;;;11.02;37.42;103069.41;4978088;28;45229;-94
2022/03/19 05:49:28;;;;;;;;;19.00;18.00;;;;;11.09;38.08;103105.81;4977671;28;45422;-95
2022/03/19 05:52:25;;;;;;;;;19.67;16.00;;;;;11.25;38.20;103133.28;4976561;28;45326;-94
2022/03/19 05:54:50;;;;;;;;;19.33;19.33;;;;;10.54;38.41;103018.22;4976625;28;45250;-95
2022/03/19 05:57:16;;;;;;;;;19.67;17.67;;;;;11.07;38.16;103120.97;4977400;28;45561;-95
2022/03/19 05:59:41;;;;;;;;;15.67;13.33;;;;;10.45;38.64;103026.28;4977381;28;47497;-95
2022/03/19 06:02:06;;;;;;;;;20.67;19.67;;;;;10.84;38.68;103081.13;4977008;28;45471;-94
2022/03/19 06:04:35;;;;;;;;;24.33;18.67;;;;;10.35;38.48;103005.00;4977203;28;45683;-95
2022/03/19 06:07:01;;;;;;;;;19.00;17.33;;;;;10.66;38.98;103046.59;4976652;28;45656;-90
2022/03/19 06:09:27;;;;;;;;;19.67;17.33;;;;;11.03;38.81;103116.56;4976268;28;47788;-93
2022/03/19 06:11:52;;;;;;;;;21.00;19.33;;;;;10.72;38.38;103055.44;4976305;28;45205;-93
2022/03/19 06:14:17;;;;;;;;;19.00;19.00;;;;;10.48;39.40;103031.59;4976520;28;45248;-94
2022/03/19 06:16:43;;;;;;;;;23.00;21.00;;;;;10.50;39.36;103032.47;4976331;28;45234;-93
2022/03/19 06:19:08;;;;;;;;;26.00;23.75;;;;;10.60;39.40;103041.28;4976052;28;47212;-93
2022/03/19 06:21:34;;;;;;;;;24.00;20.00;;;;;10.88;39.79;103085.53;4976132;28;45467;-93
2022/03/19 06:23:59;;;;;;;;;22.67;21.00;;;;;10.78;39.23;103068.72;4976068;27;45283;-93
2022/03/19 06:26:26;;;;;;;;;28.75;21.75;;;;;10.05;39.75;102942.09;4976408;28;45378;-94
2022/03/19 06:28:52;;;;;;;;;29.50;26.00;;;;;10.88;39.76;103081.97;4975828;28;47245;-94
2022/03/19 06:31:17;;;;;;;;;25.00;23.75;;;;;10.80;39.70;103074.03;4976039;28;45887;-94
2022/03/19 06:33:44;;;;;;;;;27.25;25.75;;;;;11.16;39.97;103130.69;4976163;28;45365;-94
2022/03/19 06:38:54;;;;;;;;;31.00;25.00;;;;;10.78;39.63;103041.16;4977022;28;45293;-93
2022/03/19 06:41:21;;;;;;;;;31.50;27.00;;;;;10.99;40.13;103078.34;4975575;28;52706;-93
2022/03/19 06:44:06;;;;;;;;;29.00;25.50;;;;;11.32;40.10;103140.34;4976029;28;45330;-93
2022/03/19 06:46:31;;;;;;;;;28.00;27.25;;;;;10.90;40.39;103073.06;4975612;28;45299;-94
2022/03/19 06:48:56;;;;;;;;;28.50;26.25;;;;;10.63;40.58;103007.50;4975824;28;48026;-94
2022/03/19 06:51:22;;;;;;;;;33.75;30.75;;;;;10.54;40.70;102992.44;4993397;28;45867;-93
2022/03/19 06:53:48;;;;;;;;;30.50;28.25;;;;;11.43;40.66;103131.38;4975570;28;45258;-94
2022/03/19 06:56:15;;;;;;;;;29.00;27.00;;;;;10.92;40.21;103047.25;4975804;28;45589;-94
2022/03/19 06:58:43;;;;;;;;;31.25;26.50;;;;;11.34;40.55;103111.84;4975269;28;47508;-93
2022/03/19 07:01:14;;;;;;;;;33.75;30.00;;;;;11.28;40.55;103085.19;4974726;28;45382;-93
2022/03/19 07:03:46;;;;;;;;;35.50;30.00;;;;;11.39;40.63;103107.34;4975126;28;45477;-92
2022/03/19 07:06:13;;;;;;;;;31.75;28.50;;;;;11.23;40.89;103072.81;4976849;28;45305;-93
2022/03/19 07:08:39;;;;;;;;;34.75;31.50;;;;;10.95;40.83;103039.22;4974973;28;48498;-93
2022/03/19 07:11:05;;;;;;;;;33.25;30.50;;;;;11.39;41.08;103095.78;4975275;28;45472;-93
2022/03/19 07:13:31;;;;;;;;;39.25;30.75;;;;;10.53;41.01;102934.66;4977593;28;45442;-94
2022/03/19 07:15:57;;;;;;;;;37.00;30.25;;;;;11.07;41.13;103024.88;5013573;28;45488;-92
2022/03/19 07:18:23;;;;;;;;;36.25;30.25;;;;;11.22;41.13;103050.56;4994206;28;48485;-91
2022/03/19 07:20:50;;;;;;;;;35.25;30.00;;;;;11.16;41.21;103031.94;4994791;28;45460;-95
2022/03/19 07:23:16;;;;;;;;;36.00;31.75;;;;;11.82;41.14;103135.44;4994406;28;45482;-93
2022/03/19 07:25:43;;;;;;;;;43.00;33.75;;;;;11.84;40.85;103131.84;4995410;28;45530;-94
2022/03/19 07:28:17;;;;;;;;;43.50;33.50;;;;;11.25;40.77;103036.31;4994531;28;47529;-94
2022/03/19 07:30:43;;;;;;;;;43.50;32.75;;;;;11.81;40.96;103110.50;4995313;28;45964;-95
2022/03/19 07:33:09;;;;;;;;;42.25;33.50;;;;;11.54;41.22;103070.72;5013801;28;45383;-93
2022/03/19 07:35:34;;;;;;;;;50.50;33.00;;;;;11.30;40.95;103032.69;5015155;28;45349;-93
2022/03/19 07:38:00;;;;;;;;;20.25;20.25;;;;;11.34;40.97;103034.44;5014557;28;48316;-93
2022/03/19 07:43:30;;;;;;;;;41.50;33.75;;;;;12.15;40.88;103134.22;5015358;28;45375;-93
2022/03/19 07:45:56;;;;;;;;;46.25;36.50;;;;;11.74;40.98;103047.34;5014406;28;45630;-94
2022/03/19 07:48:21;;;;;;;;;50.00;35.75;;;;;11.97;40.75;103078.31;5013048;28;47069;-90
2022/03/19 07:50:47;;;;;;;;;46.25;36.50;;;;;12.13;40.68;103089.69;5013808;28;45826;-93
2022/03/19 07:53:17;;;;;;;;;44.50;35.00;;;;;11.88;40.50;103038.34;5014473;28;45280;-92
2022/03/19 07:55:43;;;;;;;;;44.50;38.00;;;;;12.32;40.64;103119.75;5013597;28;45263;-92
2022/03/19 07:58:08;;;;;;;;;43.75;35.00;;;;;11.78;40.75;103025.03;5012966;28;48311;-92
2022/03/19 08:00:34;;;;;;;;;44.50;34.75;;;;;11.69;40.74;102995.75;5013648;28;45256;-92
2022/03/19 08:02:59;;;;;;;;;44.00;35.75;;;;;11.88;40.80;103011.59;5017437;28;45339;-91
2022/03/19 08:05:24;;;;;;;;;43.50;34.25;;;;;11.89;40.40;103016.91;5049490;27;45338;-92
2022/03/19 08:07:51;;;;;;;;;44.50;34.50;;;;;12.10;40.51;103022.88;5100436;27;47860;-91
2022/03/19 08:10:18;;;;;;;;;46.25;37.50;;;;;12.17;40.72;103035.25;5024471;27;45457;-92
2022/03/19 08:12:45;;;;;;;;;42.25;35.25;;;;;12.23;40.72;103043.22;4996890;27;45328;-93
2022/03/19 08:15:11;;;;;;;;;48.25;39.00;;;;;12.86;40.57;103135.94;5001819;27;45365;-87
2022/03/19 08:17:37;;;;;;;;;49.25;37.50;;;;;12.44;40.31;103036.69;5001094;27;47268;-90
2022/03/19 08:20:06;;;;;;;;;42.00;36.25;;;;;12.32;40.63;103002.09;4996248;27;45438;-92
2022/03/19 08:22:32;;;;;;;;;51.50;39.00;;;;;13.09;40.41;103117.75;4991968;27;45595;-90
2022/03/19 08:24:58;;;;;;;;;44.25;38.25;;;;;12.44;40.19;103004.59;5017009;28;45494;-94
2022/03/19 08:27:24;;;;;;;;;43.25;36.75;;;;;13.13;39.81;103046.25;5016673;28;47509;-93
2022/03/19 08:29:49;;;;;;;;;49.00;37.25;;;;;13.94;37.83;102982.19;5016475;28;46135;-93
2022/03/19 08:32:15;;;;;;;;;44.00;38.75;;;;;14.80;37.00;103068.81;5017303;28;45349;-91
2022/03/19 08:34:40;;;;;;;;;43.50;37.25;;;;;14.52;36.88;103015.75;5017579;28;45324;-91
2022/03/19 08:37:06;;;;;;;;;39.50;35.50;;;;;14.06;37.21;102973.88;5016248;28;46963;-93
2022/03/19 08:42:16;;;;;;;;;42.50;35.00;;;;;14.43;36.93;103058.88;4997350;28;45534;-91
2022/03/19 08:44:42;;;;;;;;;41.50;36.25;;;;;13.85;37.25;102950.22;4997361;28;45357;-92
2022/03/19 08:47:07;;;;;;;;;45.25;37.00;;;;;14.09;37.54;102989.94;4995450;27;47303;-91
2022/03/19 08:49:32;;;;;;;;;44.75;34.75;;;;;14.14;37.58;102993.38;4995234;27;46043;-90
2022/03/19 08:51:58;;;;;;;;;40.50;35.50;;;;;14.08;37.34;102965.81;4996707;27;45281;-90
2022/03/19 08:54:23;;;;;;;;;45.25;37.50;;;;;14.09;36.94;102972.94;4991651;27;45630;-90
2022/03/19 08:56:50;;;;;;;;;42.50;36.00;;;;;14.59;37.28;103056.78;4987855;27;45485;-89
2022/03/19 08:59:17;;;;;;;;;46.75;38.00;;;;;13.92;36.90;102911.66;5000354;27;45371;-94
2022/03/19 09:01:44;;;;;;;;;42.75;37.00;;;;;14.48;36.93;102989.03;4986130;28;45437;-89
2022/03/19 09:04:11;;;;;;;;;38.75;33.50;;;;;14.15;36.90;102924.53;4994196;27;45610;-88
2022/03/19 09:06:37;;;;;;;;;42.00;33.25;;;;;14.42;36.78;102952.50;4989840;27;45533;-88
2022/03/19 09:09:03;;;;;;;;;38.00;35.00;;;;;15.07;36.55;103052.91;4997976;27;45448;-93
2022/03/19 09:11:30;;;;;;;;;43.50;36.00;;;;;15.18;36.49;103046.34;4994164;28;45232;-91
2022/03/19 09:13:56;;;;;;;;;42.50;35.25;;;;;15.61;36.44;103100.75;4977674;28;45401;-94
